Philip, SD

9:35 AM MDT on April 28, 2015 (GMT -0600)
Philip | | Change Station
CLOSE
Current Station
Airport
Location: Philip,
Elevation: 2208 ft
Nearby Weather Stations

Elev 2208 ft 44.05 °N, 101.60 °W | Updated 40 minutes ago

Partly Cloudy
Partly Cloudy
53 °F
Feels Like 53 °F
N
10
Wind Variable Wind from NNE

Today
High -- | Low -- °F
--% Chance of Precip.
Yesterday
High -- | Low -- °F
Precip. -- in
5:42 AM 7:46 PM
Waxing Gibbous, 74% visible
Pressure 30.35 in
Visibility 10.0 miles
Clouds Scattered Clouds 3500 ft
Dew Point 35 °F
Humidity 50%
Rainfall 0.00 in
Snow Depth Not available.
UV 3 out of 12
Pollen 9.10 out of 12
Air Quality Not available.
Flu Activity Sporadic
METAR KPHP 281455Z AUTO 02009KT 10SM SCT035 12/02 A3034 RMK AO2 SLP275 T01170017 58004

More Conditions Fewer Conditions

Pressure 30.35 in
Visibility 10.0 miles
Clouds Scattered Clouds 3500 ft
Dew Point 35 °F
Humidity 50%
Rainfall 0.00 in
Snow Depth Not available.
UV 3 out of 12
Pollen 9.10 out of 12
Air Quality Not available.
Flu Activity Sporadic
METAR KPHP 281455Z AUTO 02009KT 10SM SCT035 12/02 A3034 RMK AO2 SLP275 T01170017 58004

More Conditions Fewer Conditions

10-Day Weather Forecast

Almanac

Astronomy

Apr. 28, 2015 Rise Set
Actual Time
Civil Twilight
Nautical Twilight
Astronomical Twilight
Moon
Length of Visible Light
Length of Day
Tomorrow will be .
, % of the Moon is Illuminated

Today's Extremes

State Highs State Lows

Community

WunderPhotos

Upload Photos

1,817,675 photos uploaded!

WunderBlogs® & News

Nearby

Air Quality

  Air Quality AQ Index Pollutant
Not available.

Snow Depth

Station Depth Elevation

Earthquake Activity

City Distance Mag. Time & Date
Minimum magnitude displayed is 2.5.

Coastal Water Temperatures

Place Temperature

Stations

Nearby Weather Stations

Station Location Temp. Windchill Dew Point Humidity Wind Precip. Elev Updated Type